sensor_id;sensor_type;location;lat;lon;timestamp;pressure;altitude;pressure_sealevel;temperature;humidity
43621;BME280;29213;50.770;7.298;2023-05-16T00:00:02;100814.91;;;11.05;56.65
43621;BME280;29213;50.770;7.298;2023-05-16T00:02:31;100786.91;;;10.92;56.71
43621;BME280;29213;50.770;7.298;2023-05-16T00:04:56;100766.03;;;10.79;56.80
43621;BME280;29213;50.770;7.298;2023-05-16T00:07:22;100717.22;;;10.44;56.84
43621;BME280;29213;50.770;7.298;2023-05-16T00:09:47;100762.63;;;10.69;57.56
43621;BME280;29213;50.770;7.298;2023-05-16T00:12:13;100843.59;;;11.19;58.73
43621;BME280;29213;50.770;7.298;2023-05-16T00:14:38;100808.00;;;10.86;59.31
43621;BME280;29213;50.770;7.298;2023-05-16T00:17:04;100704.66;;;10.20;59.62
43621;BME280;29213;50.770;7.298;2023-05-16T00:19:36;100841.50;;;10.88;60.61
43621;BME280;29213;50.770;7.298;2023-05-16T00:22:04;100806.16;;;10.78;60.17
43621;BME280;29213;50.770;7.298;2023-05-16T00:24:29;100852.59;;;11.10;61.19
43621;BME280;29213;50.770;7.298;2023-05-16T00:26:55;100851.88;;;11.08;60.56
43621;BME280;29213;50.770;7.298;2023-05-16T00:29:20;100786.59;;;10.69;62.20
43621;BME280;29213;50.770;7.298;2023-05-16T00:31:46;100848.06;;;11.02;61.04
43621;BME280;29213;50.770;7.298;2023-05-16T00:34:11;100771.47;;;10.43;61.59
43621;BME280;29213;50.770;7.298;2023-05-16T00:36:36;100774.84;;;10.45;61.51
43621;BME280;29213;50.770;7.298;2023-05-16T00:39:02;100777.03;;;10.50;61.28
43621;BME280;29213;50.770;7.298;2023-05-16T00:41:28;100843.31;;;10.88;61.94
43621;BME280;29213;50.770;7.298;2023-05-16T00:43:54;100793.22;;;10.56;62.48
43621;BME280;29213;50.770;7.298;2023-05-16T00:46:19;100815.84;;;10.61;62.28
43621;BME280;29213;50.770;7.298;2023-05-16T00:48:45;100766.78;;;10.37;61.72
43621;BME280;29213;50.770;7.298;2023-05-16T00:51:10;100787.63;;;10.41;61.99
43621;BME280;29213;50.770;7.298;2023-05-16T00:53:36;100848.94;;;10.76;62.12
43621;BME280;29213;50.770;7.298;2023-05-16T00:56:01;100638.22;;;9.48;61.86
43621;BME280;29213;50.770;7.298;2023-05-16T00:58:29;100776.06;;;10.24;62.39
43621;BME280;29213;50.770;7.298;2023-05-16T01:00:56;100815.75;;;10.44;62.36
43621;BME280;29213;50.770;7.298;2023-05-16T01:03:22;100780.00;;;10.20;62.59
43621;BME280;29213;50.770;7.298;2023-05-16T01:05:48;100832.09;;;10.49;63.02
43621;BME280;29213;50.770;7.298;2023-05-16T01:08:14;100754.75;;;9.98;62.63
43621;BME280;29213;50.770;7.298;2023-05-16T01:10:49;100784.97;;;10.15;62.86
43621;BME280;29213;50.770;7.298;2023-05-16T01:13:26;100842.13;;;10.55;62.82
43621;BME280;29213;50.770;7.298;2023-05-16T01:16:03;100811.91;;;10.38;62.93
43621;BME280;29213;50.770;7.298;2023-05-16T01:18:41;100764.81;;;10.12;63.08
43621;BME280;29213;50.770;7.298;2023-05-16T01:21:17;100777.97;;;10.14;62.98
43621;BME280;29213;50.770;7.298;2023-05-16T01:24:12;100840.78;;;10.51;63.33
43621;BME280;29213;50.770;7.298;2023-05-16T01:26:40;100795.31;;;10.18;63.50
43621;BME280;29213;50.770;7.298;2023-05-16T01:29:06;100776.88;;;9.98;63.84
43621;BME280;29213;50.770;7.298;2023-05-16T01:31:32;100837.16;;;10.34;63.88
43621;BME280;29213;50.770;7.298;2023-05-16T01:33:57;100834.34;;;10.36;63.66
43621;BME280;29213;50.770;7.298;2023-05-16T01:36:33;100835.34;;;10.35;64.22
43621;BME280;29213;50.770;7.298;2023-05-16T01:39:04;100745.16;;;9.79;63.83
43621;BME280;29213;50.770;7.298;2023-05-16T01:41:42;100840.53;;;10.36;64.08
43621;BME280;29213;50.770;7.298;2023-05-16T01:44:31;100845.31;;;10.33;64.36
43621;BME280;29213;50.770;7.298;2023-05-16T01:47:00;100763.91;;;9.77;64.50
43621;BME280;29213;50.770;7.298;2023-05-16T01:49:38;100853.72;;;10.20;64.98
43621;BME280;29213;50.770;7.298;2023-05-16T01:52:10;100739.41;;;9.47;65.19
43621;BME280;29213;50.770;7.298;2023-05-16T01:54:42;100828.75;;;9.94;65.26
43621;BME280;29213;50.770;7.298;2023-05-16T01:57:08;100784.97;;;9.52;65.22
43621;BME280;29213;50.770;7.298;2023-05-16T01:59:34;100860.81;;;9.93;65.67
43621;BME280;29213;50.770;7.298;2023-05-16T02:02:00;100802.59;;;9.53;66.18
43621;BME280;29213;50.770;7.298;2023-05-16T02:04:26;100796.16;;;9.46;65.92
43621;BME280;29213;50.770;7.298;2023-05-16T02:06:51;100785.63;;;9.36;66.02
43621;BME280;29213;50.770;7.298;2023-05-16T02:09:17;100863.69;;;9.81;66.07
43621;BME280;29213;50.770;7.298;2023-05-16T02:11:42;100830.94;;;9.62;66.02
43621;BME280;29213;50.770;7.298;2023-05-16T02:14:08;100850.06;;;9.66;66.24
43621;BME280;29213;50.770;7.298;2023-05-16T02:16:34;100821.50;;;9.50;66.52
43621;BME280;29213;50.770;7.298;2023-05-16T02:19:00;100874.03;;;9.84;66.65
43621;BME280;29213;50.770;7.298;2023-05-16T02:21:25;100837.84;;;9.55;66.59
43621;BME280;29213;50.770;7.298;2023-05-16T02:23:51;100889.00;;;9.67;67.11
43621;BME280;29213;50.770;7.298;2023-05-16T02:26:16;100886.09;;;9.60;66.72
43621;BME280;29213;50.770;7.298;2023-05-16T02:28:41;100863.78;;;9.43;66.32
43621;BME280;29213;50.770;7.298;2023-05-16T02:31:07;100894.22;;;9.59;66.20
43621;BME280;29213;50.770;7.298;2023-05-16T02:33:32;100876.00;;;9.36;66.69
43621;BME280;29213;50.770;7.298;2023-05-16T02:35:58;100866.94;;;9.29;66.03
43621;BME280;29213;50.770;7.298;2023-05-16T02:38:24;100907.66;;;9.57;65.79
43621;BME280;29213;50.770;7.298;2023-05-16T02:40:49;100901.13;;;9.52;65.99
43621;BME280;29213;50.770;7.298;2023-05-16T02:43:15;100868.41;;;9.13;66.20
43621;BME280;29213;50.770;7.298;2023-05-16T02:45:40;100896.31;;;9.27;66.63
43621;BME280;29213;50.770;7.298;2023-05-16T02:48:06;100916.25;;;9.41;66.38
43621;BME280;29213;50.770;7.298;2023-05-16T02:50:32;100882.50;;;9.23;66.02
43621;BME280;29213;50.770;7.298;2023-05-16T02:52:58;100834.00;;;8.83;66.26
43621;BME280;29213;50.770;7.298;2023-05-16T02:55:29;100798.34;;;8.58;66.10
43621;BME280;29213;50.770;7.298;2023-05-16T02:57:54;100925.50;;;9.37;66.85
43621;BME280;29213;50.770;7.298;2023-05-16T03:00:19;100814.56;;;8.55;66.72
43621;BME280;29213;50.770;7.298;2023-05-16T03:02:45;100932.00;;;9.25;66.73
43621;BME280;29213;50.770;7.298;2023-05-16T03:05:11;100828.53;;;8.57;66.63
43621;BME280;29213;50.770;7.298;2023-05-16T03:07:37;100885.28;;;8.94;66.64
43621;BME280;29213;50.770;7.298;2023-05-16T03:10:03;100950.75;;;9.23;66.72
43621;BME280;29213;50.770;7.298;2023-05-16T03:12:28;100949.22;;;9.20;67.42
43621;BME280;29213;50.770;7.298;2023-05-16T03:14:54;100921.75;;;9.02;66.48
43621;BME280;29213;50.770;7.298;2023-05-16T03:17:19;100953.03;;;9.08;66.81
43621;BME280;29213;50.770;7.298;2023-05-16T03:19:45;100890.09;;;8.70;66.85
43621;BME280;29213;50.770;7.298;2023-05-16T03:22:10;100858.75;;;8.46;66.62
43621;BME280;29213;50.770;7.298;2023-05-16T03:24:35;100959.34;;;9.07;66.78
43621;BME280;29213;50.770;7.298;2023-05-16T03:27:01;100884.72;;;8.52;66.80
43621;BME280;29213;50.770;7.298;2023-05-16T03:29:29;100962.19;;;8.95;66.53
43621;BME280;29213;50.770;7.298;2023-05-16T03:31:54;100888.50;;;8.50;66.73
43621;BME280;29213;50.770;7.298;2023-05-16T03:34:20;100843.97;;;8.14;66.89
43621;BME280;29213;50.770;7.298;2023-05-16T03:36:49;100850.69;;;8.18;66.66
43621;BME280;29213;50.770;7.298;2023-05-16T03:39:15;100826.25;;;7.95;66.49
43621;BME280;29213;50.770;7.298;2023-05-16T03:41:41;100928.72;;;8.55;66.50
43621;BME280;29213;50.770;7.298;2023-05-16T03:44:06;100944.50;;;8.66;65.69
43621;BME280;29213;50.770;7.298;2023-05-16T03:46:32;100924.66;;;8.51;65.06
43621;BME280;29213;50.770;7.298;2023-05-16T03:48:57;100925.25;;;8.45;65.23
43621;BME280;29213;50.770;7.298;2023-05-16T03:51:23;100954.69;;;8.51;65.32
43621;BME280;29213;50.770;7.298;2023-05-16T03:53:48;100988.09;;;8.74;65.61
43621;BME280;29213;50.770;7.298;2023-05-16T03:56:14;100948.28;;;8.44;66.18
43621;BME280;29213;50.770;7.298;2023-05-16T03:58:39;100999.38;;;8.76;65.67
43621;BME280;29213;50.770;7.298;2023-05-16T04:01:04;101002.47;;;8.71;65.25
43621;BME280;29213;50.770;7.298;2023-05-16T04:03:30;100912.69;;;8.07;65.07
43621;BME280;29213;50.770;7.298;2023-05-16T04:05:58;100951.34;;;8.20;65.23
43621;BME280;29213;50.770;7.298;2023-05-16T04:08:23;101016.16;;;8.56;65.02
43621;BME280;29213;50.770;7.298;2023-05-16T04:10:50;100955.28;;;8.15;64.80
43621;BME280;29213;50.770;7.298;2023-05-16T04:13:15;100977.50;;;8.24;64.21
43621;BME280;29213;50.770;7.298;2023-05-16T04:15:40;101044.41;;;8.58;64.30
43621;BME280;29213;50.770;7.298;2023-05-16T04:18:08;100972.56;;;8.10;64.25
43621;BME280;29213;50.770;7.298;2023-05-16T04:20:33;100944.47;;;7.87;64.36
43621;BME280;29213;50.770;7.298;2023-05-16T04:22:59;101046.63;;;8.42;64.37
43621;BME280;29213;50.770;7.298;2023-05-16T04:25:25;100965.94;;;7.84;64.30
43621;BME280;29213;50.770;7.298;2023-05-16T04:27:50;100912.47;;;7.59;64.02
43621;BME280;29213;50.770;7.298;2023-05-16T04:30:16;101003.72;;;8.18;64.47
43621;BME280;29213;50.770;7.298;2023-05-16T04:32:42;100931.59;;;7.73;64.37
43621;BME280;29213;50.770;7.298;2023-05-16T04:35:07;101024.13;;;8.27;64.45
43621;BME280;29213;50.770;7.298;2023-05-16T04:37:34;101054.59;;;8.42;64.53
43621;BME280;29213;50.770;7.298;2023-05-16T04:40:00;100940.66;;;7.70;64.28
43621;BME280;29213;50.770;7.298;2023-05-16T04:42:25;101017.25;;;8.14;64.40
43621;BME280;29213;50.770;7.298;2023-05-16T04:44:51;101064.38;;;8.42;63.99
43621;BME280;29213;50.770;7.298;2023-05-16T04:47:16;101031.94;;;8.19;64.01
43621;BME280;29213;50.770;7.298;2023-05-16T04:49:42;100976.13;;;7.79;63.47
43621;BME280;29213;50.770;7.298;2023-05-16T04:52:07;100996.13;;;8.03;63.75
43621;BME280;29213;50.770;7.298;2023-05-16T04:54:33;100867.03;;;7.23;63.65
43621;BME280;29213;50.770;7.298;2023-05-16T04:56:58;101008.72;;;8.11;63.80
43621;BME280;29213;50.770;7.298;2023-05-16T04:59:24;101034.75;;;8.27;64.05
43621;BME280;29213;50.770;7.298;2023-05-16T05:01:49;101005.81;;;8.04;63.79
43621;BME280;29213;50.770;7.298;2023-05-16T05:04:15;101088.16;;;8.53;63.47
43621;BME280;29213;50.770;7.298;2023-05-16T05:06:42;101087.28;;;8.53;64.02
43621;BME280;29213;50.770;7.298;2023-05-16T05:09:07;101007.41;;;7.95;63.75
43621;BME280;29213;50.770;7.298;2023-05-16T05:11:33;101004.75;;;7.95;64.04
43621;BME280;29213;50.770;7.298;2023-05-16T05:13:58;101005.06;;;7.92;63.82
43621;BME280;29213;50.770;7.298;2023-05-16T05:16:23;101100.16;;;8.58;63.30
43621;BME280;29213;50.770;7.298;2023-05-16T05:18:49;101105.75;;;8.54;63.48
43621;BME280;29213;50.770;7.298;2023-05-16T05:21:14;101064.63;;;8.29;63.77
43621;BME280;29213;50.770;7.298;2023-05-16T05:23:40;101063.94;;;8.27;63.90
43621;BME280;29213;50.770;7.298;2023-05-16T05:26:05;101023.19;;;7.97;63.73
43621;BME280;29213;50.770;7.298;2023-05-16T05:28:31;101076.63;;;8.23;63.68
43621;BME280;29213;50.770;7.298;2023-05-16T05:30:56;101090.06;;;8.32;64.10
43621;BME280;29213;50.770;7.298;2023-05-16T05:33:25;101110.19;;;8.34;64.10
43621;BME280;29213;50.770;7.298;2023-05-16T05:35:51;101015.34;;;7.85;63.76
43621;BME280;29213;50.770;7.298;2023-05-16T05:38:18;101105.28;;;8.29;64.07
43621;BME280;29213;50.770;7.298;2023-05-16T05:40:44;101129.06;;;8.41;63.50
43621;BME280;29213;50.770;7.298;2023-05-16T05:43:09;101083.44;;;8.06;63.96
43621;BME280;29213;50.770;7.298;2023-05-16T05:45:35;101073.47;;;7.98;64.19
43621;BME280;29213;50.770;7.298;2023-05-16T05:48:00;101142.56;;;8.28;64.43
43621;BME280;29213;50.770;7.298;2023-05-16T05:50:26;101143.50;;;8.17;64.73
43621;BME280;29213;50.770;7.298;2023-05-16T05:52:51;101083.41;;;7.75;64.42
43621;BME280;29213;50.770;7.298;2023-05-16T05:55:17;101153.97;;;8.19;64.13
43621;BME280;29213;50.770;7.298;2023-05-16T05:57:42;101142.31;;;8.00;64.33
43621;BME280;29213;50.770;7.298;2023-05-16T06:00:08;101072.75;;;7.55;64.05
43621;BME280;29213;50.770;7.298;2023-05-16T06:02:34;101016.75;;;7.17;63.81
43621;BME280;29213;50.770;7.298;2023-05-16T06:05:00;101169.03;;;8.08;63.91
43621;BME280;29213;50.770;7.298;2023-05-16T06:07:25;101101.63;;;7.58;63.65
43621;BME280;29213;50.770;7.298;2023-05-16T06:09:50;101110.75;;;7.66;63.41
43621;BME280;29213;50.770;7.298;2023-05-16T06:12:16;101176.16;;;8.08;63.64
43621;BME280;29213;50.770;7.298;2023-05-16T06:14:42;101135.91;;;7.81;63.22
43621;BME280;29213;50.770;7.298;2023-05-16T06:17:07;101080.03;;;7.42;62.85
43621;BME280;29213;50.770;7.298;2023-05-16T06:19:33;101149.38;;;7.89;62.99
43621;BME280;29213;50.770;7.298;2023-05-16T06:21:58;101173.22;;;8.11;62.49
43621;BME280;29213;50.770;7.298;2023-05-16T06:24:23;101152.19;;;7.98;62.29
43621;BME280;29213;50.770;7.298;2023-05-16T06:26:49;101103.16;;;7.61;61.15
43621;BME280;29213;50.770;7.298;2023-05-16T06:29:15;101105.25;;;7.57;61.13
43621;BME280;29213;50.770;7.298;2023-05-16T06:31:41;101132.25;;;7.72;61.02
43621;BME280;29213;50.770;7.298;2023-05-16T06:34:06;101141.31;;;7.70;60.94
43621;BME280;29213;50.770;7.298;2023-05-16T06:36:32;101099.50;;;7.52;61.56
43621;BME280;29213;50.770;7.298;2023-05-16T06:38:57;101195.31;;;8.11;60.29
43621;BME280;29213;50.770;7.298;2023-05-16T06:41:23;101141.53;;;7.88;60.40
43621;BME280;29213;50.770;7.298;2023-05-16T06:43:48;101136.97;;;7.90;60.20
43621;BME280;29213;50.770;7.298;2023-05-16T06:46:13;101218.03;;;8.45;59.50
43621;BME280;29213;50.770;7.298;2023-05-16T06:48:39;100854.06;;;6.15;59.80
43621;BME280;29213;50.770;7.298;2023-05-16T06:51:04;101053.81;;;7.39;58.29
43621;BME280;29213;50.770;7.298;2023-05-16T06:53:29;101238.94;;;8.28;58.33
43621;BME280;29213;50.770;7.298;2023-05-16T06:55:55;101221.88;;;8.00;57.90
43621;BME280;29213;50.770;7.298;2023-05-16T06:58:20;101124.00;;;7.44;58.24
43621;BME280;29213;50.770;7.298;2023-05-16T07:00:48;100949.28;;;6.36;57.32
43621;BME280;29213;50.770;7.298;2023-05-16T07:03:13;100951.66;;;6.51;57.47
43621;BME280;29213;50.770;7.298;2023-05-16T07:05:39;101113.19;;;7.57;57.35
43621;BME280;29213;50.770;7.298;2023-05-16T07:08:04;101196.75;;;8.25;57.44
43621;BME280;29213;50.770;7.298;2023-05-16T07:10:30;101218.09;;;8.55;57.09
43621;BME280;29213;50.770;7.298;2023-05-16T07:12:55;101152.78;;;8.42;56.85
43621;BME280;29213;50.770;7.298;2023-05-16T07:15:20;101159.41;;;8.58;56.47
43621;BME280;29213;50.770;7.298;2023-05-16T07:17:46;101078.03;;;8.18;55.72
43621;BME280;29213;50.770;7.298;2023-05-16T07:20:11;101156.25;;;8.84;56.01
43621;BME280;29213;50.770;7.298;2023-05-16T07:22:39;101226.06;;;9.35;55.02
43621;BME280;29213;50.770;7.298;2023-05-16T07:25:05;101203.94;;;9.25;54.44
43621;BME280;29213;50.770;7.298;2023-05-16T07:27:30;101121.13;;;8.51;54.12
43621;BME280;29213;50.770;7.298;2023-05-16T07:29:56;101198.63;;;8.95;54.27
43621;BME280;29213;50.770;7.298;2023-05-16T07:32:22;101066.06;;;7.92;53.76
43621;BME280;29213;50.770;7.298;2023-05-16T07:34:47;101185.72;;;8.71;53.25
43621;BME280;29213;50.770;7.298;2023-05-16T07:37:13;100917.78;;;6.97;53.35
43621;BME280;29213;50.770;7.298;2023-05-16T07:39:40;101125.41;;;8.32;53.22
43621;BME280;29213;50.770;7.298;2023-05-16T07:42:06;101165.25;;;8.52;53.12
43621;BME280;29213;50.770;7.298;2023-05-16T07:44:32;101148.66;;;8.60;52.88
43621;BME280;29213;50.770;7.298;2023-05-16T07:46:57;101214.00;;;9.02;52.19
43621;BME280;29213;50.770;7.298;2023-05-16T07:49:22;101246.03;;;9.40;51.78
43621;BME280;29213;50.770;7.298;2023-05-16T07:51:48;101094.28;;;8.54;50.76
43621;BME280;29213;50.770;7.298;2023-05-16T07:54:13;101051.63;;;8.16;51.48
43621;BME280;29213;50.770;7.298;2023-05-16T07:56:39;100941.75;;;7.58;51.59
43621;BME280;29213;50.770;7.298;2023-05-16T07:59:04;101204.63;;;9.27;51.34
43621;BME280;29213;50.770;7.298;2023-05-16T08:01:30;101163.13;;;9.16;51.93
43621;BME280;29213;50.770;7.298;2023-05-16T08:03:55;100891.81;;;7.73;51.79
43621;BME280;29213;50.770;7.298;2023-05-16T08:06:21;100901.44;;;7.84;50.61
43621;BME280;29213;50.770;7.298;2023-05-16T08:08:46;101249.19;;;10.12;49.42
43621;BME280;29213;50.770;7.298;2023-05-16T08:11:11;101212.88;;;9.83;50.14
43621;BME280;29213;50.770;7.298;2023-05-16T08:13:37;101177.09;;;9.58;47.94
43621;BME280;29213;50.770;7.298;2023-05-16T08:16:02;101237.78;;;9.82;46.76
43621;BME280;29213;50.770;7.298;2023-05-16T08:18:28;101173.31;;;9.51;48.18
43621;BME280;29213;50.770;7.298;2023-05-16T08:20:53;101167.53;;;9.65;49.17
43621;BME280;29213;50.770;7.298;2023-05-16T08:23:18;101212.66;;;10.14;47.17
43621;BME280;29213;50.770;7.298;2023-05-16T08:25:44;101203.81;;;10.14;48.13
43621;BME280;29213;50.770;7.298;2023-05-16T08:28:09;101186.81;;;9.87;45.01
43621;BME280;29213;50.770;7.298;2023-05-16T08:30:35;100898.72;;;8.05;45.78
43621;BME280;29213;50.770;7.298;2023-05-16T08:33:00;101255.69;;;10.48;46.14
43621;BME280;29213;50.770;7.298;2023-05-16T08:35:29;101094.28;;;9.81;46.17
43621;BME280;29213;50.770;7.298;2023-05-16T08:37:55;101090.16;;;9.96;44.38
43621;BME280;29213;50.770;7.298;2023-05-16T08:40:21;100881.31;;;8.70;44.01
43621;BME280;29213;50.770;7.298;2023-05-16T08:42:49;100909.19;;;8.94;43.81
43621;BME280;29213;50.770;7.298;2023-05-16T08:45:14;100964.22;;;9.59;44.29
43621;BME280;29213;50.770;7.298;2023-05-16T08:47:41;101235.88;;;11.61;43.35
43621;BME280;29213;50.770;7.298;2023-05-16T08:50:08;101126.00;;;10.94;41.97
43621;BME280;29213;50.770;7.298;2023-05-16T08:52:34;101151.31;;;11.17;40.75
43621;BME280;29213;50.770;7.298;2023-05-16T08:55:02;101215.28;;;11.53;40.59
43621;BME280;29213;50.770;7.298;2023-05-16T08:57:32;101218.72;;;11.45;41.04
43621;BME280;29213;50.770;7.298;2023-05-16T08:59:59;100889.16;;;9.38;41.68
43621;BME280;29213;50.770;7.298;2023-05-16T09:02:24;101234.25;;;11.50;41.66
43621;BME280;29213;50.770;7.298;2023-05-16T09:04:51;101125.31;;;10.92;40.42
43621;BME280;29213;50.770;7.298;2023-05-16T09:07:17;101123.09;;;11.06;41.38
43621;BME280;29213;50.770;7.298;2023-05-16T09:09:42;101225.50;;;11.84;40.68
43621;BME280;29213;50.770;7.298;2023-05-16T09:12:08;100931.13;;;9.90;40.16
43621;BME280;29213;50.770;7.298;2023-05-16T09:14:33;101208.22;;;11.44;40.92
43621;BME280;29213;50.770;7.298;2023-05-16T09:17:07;101246.50;;;11.79;41.64
43621;BME280;29213;50.770;7.298;2023-05-16T09:19:40;101233.50;;;11.84;40.55
43621;BME280;29213;50.770;7.298;2023-05-16T09:22:13;101233.13;;;12.24;40.49
43621;BME280;29213;50.770;7.298;2023-05-16T09:24:44;101246.81;;;12.55;40.63
43621;BME280;29213;50.770;7.298;2023-05-16T09:27:13;101194.19;;;12.56;40.00
43621;BME280;29213;50.770;7.298;2023-05-16T09:29:42;101237.22;;;12.96;39.99
43621;BME280;29213;50.770;7.298;2023-05-16T09:32:12;101211.78;;;12.75;39.77
43621;BME280;29213;50.770;7.298;2023-05-16T09:34:46;101206.47;;;12.40;38.80
43621;BME280;29213;50.770;7.298;2023-05-16T09:37:13;100763.88;;;9.41;38.98
43621;BME280;29213;50.770;7.298;2023-05-16T09:39:45;101181.56;;;12.23;38.79
43621;BME280;29213;50.770;7.298;2023-05-16T09:42:12;101191.88;;;12.61;38.76
43621;BME280;29213;50.770;7.298;2023-05-16T09:44:38;101250.88;;;13.36;38.46
43621;BME280;29213;50.770;7.298;2023-05-16T09:47:04;101155.06;;;13.06;37.45
43621;BME280;29213;50.770;7.298;2023-05-16T09:49:30;101044.19;;;12.34;35.12
43621;BME280;29213;50.770;7.298;2023-05-16T09:51:59;101214.72;;;13.65;35.49
43621;BME280;29213;50.770;7.298;2023-05-16T09:54:31;101234.25;;;13.82;34.45
43621;BME280;29213;50.770;7.298;2023-05-16T09:56:57;100936.31;;;11.85;35.21
43621;BME280;29213;50.770;7.298;2023-05-16T09:59:23;101092.88;;;13.13;35.08
43621;BME280;29213;50.770;7.298;2023-05-16T10:01:49;101227.38;;;14.13;31.82
43621;BME280;29213;50.770;7.298;2023-05-16T10:04:15;101082.16;;;13.29;33.87
43621;BME280;29213;50.770;7.298;2023-05-16T10:06:41;101136.88;;;13.83;33.60
43621;BME280;29213;50.770;7.298;2023-05-16T10:09:10;101231.53;;;14.64;33.26
43621;BME280;29213;50.770;7.298;2023-05-16T10:11:37;101196.25;;;14.52;33.37
43621;BME280;29213;50.770;7.298;2023-05-16T10:14:04;101205.00;;;14.77;33.74
43621;BME280;29213;50.770;7.298;2023-05-16T10:16:30;101224.75;;;15.31;33.56
43621;BME280;29213;50.770;7.298;2023-05-16T10:18:56;101118.28;;;14.62;31.84
43621;BME280;29213;50.770;7.298;2023-05-16T10:21:22;101185.13;;;14.87;33.52
43621;BME280;29213;50.770;7.298;2023-05-16T10:23:50;101239.06;;;14.92;32.81
43621;BME280;29213;50.770;7.298;2023-05-16T10:26:19;101191.38;;;14.55;32.94
43621;BME280;29213;50.770;7.298;2023-05-16T10:28:46;101156.47;;;14.32;32.24
43621;BME280;29213;50.770;7.298;2023-05-16T10:31:12;101238.03;;;15.01;32.54
43621;BME280;29213;50.770;7.298;2023-05-16T10:33:39;101176.72;;;14.66;32.76
43621;BME280;29213;50.770;7.298;2023-05-16T10:36:06;101173.97;;;14.51;33.12
43621;BME280;29213;50.770;7.298;2023-05-16T10:38:32;101186.34;;;14.52;32.57
43621;BME280;29213;50.770;7.298;2023-05-16T10:40:58;101237.91;;;14.63;31.80
43621;BME280;29213;50.770;7.298;2023-05-16T10:43:28;101148.06;;;13.95;31.11
43621;BME280;29213;50.770;7.298;2023-05-16T10:46:08;101229.84;;;14.63;31.58
43621;BME280;29213;50.770;7.298;2023-05-16T10:50:59;101195.19;;;15.16;32.76
43621;BME280;29213;50.770;7.298;2023-05-16T10:53:30;101225.81;;;15.45;32.12
43621;BME280;29213;50.770;7.298;2023-05-16T11:01:22;101231.22;;;15.22;31.14
43621;BME280;29213;50.770;7.298;2023-05-16T11:06:29;101230.69;;;14.95;31.65
43621;BME280;29213;50.770;7.298;2023-05-16T11:09:03;101239.91;;;14.92;32.14
43621;BME280;29213;50.770;7.298;2023-05-16T11:11:45;101239.13;;;14.83;32.59
43621;BME280;29213;50.770;7.298;2023-05-16T11:14:34;101237.28;;;14.84;32.28
43621;BME280;29213;50.770;7.298;2023-05-16T11:17:20;101154.47;;;14.66;31.71
43621;BME280;29213;50.770;7.298;2023-05-16T11:24:53;101213.31;;;15.14;32.35
43621;BME280;29213;50.770;7.298;2023-05-16T11:29:52;101245.75;;;15.04;32.01
43621;BME280;29213;50.770;7.298;2023-05-16T11:32:19;101239.38;;;14.97;32.66
43621;BME280;29213;50.770;7.298;2023-05-16T11:34:46;101162.38;;;14.59;31.19
43621;BME280;29213;50.770;7.298;2023-05-16T11:37:12;101235.59;;;15.38;31.46
43621;BME280;29213;50.770;7.298;2023-05-16T11:39:38;101159.94;;;14.96;30.92
43621;BME280;29213;50.770;7.298;2023-05-16T11:42:03;101143.25;;;14.86;30.81
43621;BME280;29213;50.770;7.298;2023-05-16T11:44:28;101197.31;;;14.98;31.23
43621;BME280;29213;50.770;7.298;2023-05-16T11:46:54;101232.75;;;15.16;31.29
43621;BME280;29213;50.770;7.298;2023-05-16T11:49:19;101232.53;;;14.94;31.38
43621;BME280;29213;50.770;7.298;2023-05-16T11:51:45;101210.34;;;15.01;32.10
43621;BME280;29213;50.770;7.298;2023-05-16T11:54:11;101232.88;;;15.46;31.03
43621;BME280;29213;50.770;7.298;2023-05-16T11:56:38;101202.88;;;15.19;30.34
43621;BME280;29213;50.770;7.298;2023-05-16T11:59:07;101174.63;;;15.08;30.76
43621;BME280;29213;50.770;7.298;2023-05-16T12:01:38;101233.94;;;15.37;31.33
43621;BME280;29213;50.770;7.298;2023-05-16T12:04:10;101227.72;;;15.36;30.39
43621;BME280;29213;50.770;7.298;2023-05-16T12:06:37;101224.91;;;15.53;30.48
43621;BME280;29213;50.770;7.298;2023-05-16T12:09:06;101128.03;;;15.09;30.45
43621;BME280;29213;50.770;7.298;2023-05-16T12:11:36;101151.06;;;15.19;30.21
43621;BME280;29213;50.770;7.298;2023-05-16T12:14:03;101133.56;;;15.08;30.30
43621;BME280;29213;50.770;7.298;2023-05-16T12:16:29;101152.91;;;14.95;30.11
43621;BME280;29213;50.770;7.298;2023-05-16T12:18:56;101147.25;;;14.90;30.63
43621;BME280;29213;50.770;7.298;2023-05-16T12:21:21;101221.53;;;15.36;30.76
43621;BME280;29213;50.770;7.298;2023-05-16T12:23:47;101149.59;;;14.93;30.80
43621;BME280;29213;50.770;7.298;2023-05-16T12:26:12;101165.28;;;14.73;30.55
43621;BME280;29213;50.770;7.298;2023-05-16T12:28:38;101139.50;;;14.48;31.20
43621;BME280;29213;50.770;7.298;2023-05-16T12:31:10;101131.53;;;14.32;30.53
43621;BME280;29213;50.770;7.298;2023-05-16T12:33:43;101200.53;;;14.61;31.22
43621;BME280;29213;50.770;7.298;2023-05-16T12:36:12;101186.34;;;14.52;30.87
43621;BME280;29213;50.770;7.298;2023-05-16T12:38:41;101201.94;;;14.57;31.79
43621;BME280;29213;50.770;7.298;2023-05-16T12:41:10;101074.31;;;13.84;31.94
43621;BME280;29213;50.770;7.298;2023-05-16T12:43:36;101160.03;;;14.24;31.76
43621;BME280;29213;50.770;7.298;2023-05-16T12:46:01;101072.50;;;13.76;31.75
43621;BME280;29213;50.770;7.298;2023-05-16T12:48:33;101172.38;;;14.34;31.11
43621;BME280;29213;50.770;7.298;2023-05-16T12:51:11;101211.78;;;14.56;31.79
43621;BME280;29213;50.770;7.298;2023-05-16T12:53:42;101136.81;;;14.00;32.16
43621;BME280;29213;50.770;7.298;2023-05-16T12:56:09;101180.53;;;14.09;31.98
43621;BME280;29213;50.770;7.298;2023-05-16T12:58:36;101187.03;;;14.14;32.65
43621;BME280;29213;50.770;7.298;2023-05-16T13:01:02;101194.53;;;14.19;32.31
43621;BME280;29213;50.770;7.298;2023-05-16T13:03:28;101140.94;;;13.79;32.33
43621;BME280;29213;50.770;7.298;2023-05-16T13:05:54;101093.31;;;13.41;31.81
43621;BME280;29213;50.770;7.298;2023-05-16T13:08:20;101200.09;;;14.09;34.34
43621;BME280;29213;50.770;7.298;2023-05-16T13:10:45;101195.38;;;14.20;33.98